Airfield :
LOGIN :

Register | Disclaimer

   EN    FR    IT 

 










Legend :    VFR   Marginal VFR   IFR   Intensive IFR   Very Intensive IFR
Visi :
Ceiling :
>= 8 km
>= 3000ft
5 to 8 km
1000 to 3000 ft
1500m to 5 km
500 to 1000 ft
800 to 1500m
200 to 500 ft
< 800m
< 200 ft
Symbols :   Thunderstorms  Fog  Heavy snow  Heavy precipitations  Wind > 20 kt
SIGMETs :     Misc.  Thunderstorms  Icing  Turbulence  Mountain Waves  Volcanic Ashes






- Airport Elevation : 502 ft
- IATA code : ORK


EICK - Cork

CURRENT METAR :
  • 051100Z 26022G36KT 9999 SCT033 SCT047 15/06 Q1012 NOSIG

EXPIRED METARs :
  • 051030Z 26019G31KT 9999 SCT030 SCT050 14/08 Q1012 NOSIG
  • 051000Z 25019KT 9999 SCT023 BKN048 14/09 Q1012 NOSIG
  • 050930Z 25013G24KT 9999 BKN029 BKN050 14/08 Q1012 NOSIG
  • 050900Z 26017G29KT 230V290 9999 SCT023 SCT049 14/08 Q1012 NOSIG
  • 050830Z 26012KT 9999 FEW021 13/08 Q1012 NOSIG

TAF TAF EICK
Valid from the 05 at 06:00 until the 06 at 06:00 UTC


050500Z 0506/0606 26013KT 9999 FEW017 SCT030
TEMPO 0506/0509 27015G26KT
BECMG 0509/0511 27015G26KT
PROB30
TEMPO 0510/0515 SCT018CB
BECMG 0511/0513 28022G36KT
BECMG 0519/0521 29016G26KT
BECMG 0523/0601 30015KT
TEMPO 0601/0604 31016G26KT



MET'MAP, your aeronautical weather chart ! - Copyright ORBIFLY December 2007 - Disclaimer

ORBIFLY MET'MAP TEAM :

Programming & Development : Alexandra Zaïnal
Concept & original design : Baudouin d'Aumeries
Assistance for programming : Marc-Olivier Méhu
Technical & hardware support : Manuel Goepfert

Contact : metmap@orbifly.com




SOURCES & CREDITS :

   NOAA